Time;durP1;ratioP1;P1;durP2;ratioP2;P2;SDS_P1;SDS_P2;PMS_P1;PMS_P2;Temp;Humidity;BMP_temperature;BMP_pressure;BME280_temperature;BME280_humidity;BME280_pressure;Samples;Min_cycle;Max_cycle;Signal;HPM_P1;HPM_P2
2021/12/12 00:02:44;;;;;;;6.68;2.13;;;9.50;61.20;;;;;;4993512;28;20046;-74
2021/12/12 00:05:13;;;;;;;7.93;2.03;;;9.40;61.30;;;;;;4993841;28;20114;-77
2021/12/12 00:07:39;;;;;;;4.70;1.90;;;9.40;61.30;;;;;;4992366;28;20077;-74
2021/12/12 00:10:10;;;;;;;8.05;1.98;;;9.40;61.40;;;;;;4992581;28;20027;-78
2021/12/12 00:12:43;;;;;;;7.13;2.25;;;9.40;61.50;;;;;;4993641;28;20137;-78
2021/12/12 00:15:11;;;;;;;5.80;2.10;;;9.30;61.40;;;;;;4993455;28;20121;-72
2021/12/12 00:17:38;;;;;;;7.95;2.40;;;9.30;61.50;;;;;;4993329;28;20037;-75
2021/12/12 00:20:06;;;;;;;5.50;1.70;;;9.30;61.40;;;;;;4993269;28;20030;-75
2021/12/12 00:22:32;;;;;;;5.78;2.15;;;9.30;61.60;;;;;;4992740;28;20081;-76
2021/12/12 00:24:58;;;;;;;6.70;2.10;;;9.30;61.40;;;;;;4993406;28;20554;-74
2021/12/12 00:27:24;;;;;;;4.82;1.92;;;9.30;61.40;;;;;;4992002;28;20475;-73
2021/12/12 00:29:51;;;;;;;4.82;2.00;;;9.30;61.50;;;;;;4993214;28;20129;-73
2021/12/12 00:32:19;;;;;;;8.88;2.20;;;9.30;61.80;;;;;;4993307;28;20105;-72
2021/12/12 00:34:58;;;;;;;5.68;1.98;;;9.30;61.60;;;;;;4993264;28;20030;-75
2021/12/12 00:37:24;;;;;;;6.68;1.95;;;9.20;62.20;;;;;;4993345;28;20030;-73
2021/12/12 00:39:56;;;;;;;5.47;2.05;;;9.20;62.50;;;;;;4993168;28;20125;-76
2021/12/12 00:42:25;;;;;;;6.75;2.10;;;9.20;62.30;;;;;;4991801;28;20073;-76
2021/12/12 00:44:58;;;;;;;6.78;2.10;;;9.20;62.40;;;;;;4993288;28;20073;-73
2021/12/12 00:47:26;;;;;;;5.00;1.90;;;9.30;62.60;;;;;;4993192;28;20073;-77
2021/12/12 00:49:53;;;;;;;4.72;1.88;;;9.30;62.40;;;;;;4993147;28;20138;-74
2021/12/12 00:52:20;;;;;;;4.63;2.00;;;9.20;62.20;;;;;;4993234;28;20015;-75
2021/12/12 00:54:48;;;;;;;6.28;1.92;;;9.30;62.20;;;;;;4991701;28;20031;-74
2021/12/12 00:57:18;;;;;;;5.47;1.98;;;9.30;62.00;;;;;;4993276;28;20050;-75
2021/12/12 00:59:45;;;;;;;4.50;1.60;;;9.30;62.30;;;;;;4991922;28;20388;-75
2021/12/12 01:02:17;;;;;;;5.78;1.95;;;9.30;62.00;;;;;;4993089;28;20042;-76
2021/12/12 01:04:46;;;;;;;5.53;2.03;;;9.30;62.00;;;;;;4993064;28;20480;-73
2021/12/12 01:07:17;;;;;;;5.78;2.10;;;9.30;62.00;;;;;;4993228;28;20413;-75
2021/12/12 01:09:52;;;;;;;7.00;1.70;;;9.30;61.90;;;;;;4993271;28;20484;-74
2021/12/12 01:12:22;;;;;;;6.63;2.15;;;9.30;61.80;;;;;;4993132;28;20022;-76
2021/12/12 01:14:53;;;;;;;5.88;2.13;;;9.30;61.70;;;;;;4993156;28;20038;-74
2021/12/12 01:17:34;;;;;;;4.97;1.73;;;9.30;61.70;;;;;;4992929;28;20015;-74
2021/12/12 01:20:12;;;;;;;3.60;1.88;;;9.30;61.90;;;;;;4993048;28;20026;-76
2021/12/12 01:22:38;;;;;;;4.60;1.95;;;9.30;62.00;;;;;;4991797;28;20395;-74
2021/12/12 01:25:17;;;;;;;6.07;1.80;;;9.30;62.00;;;;;;4993473;28;20428;-73
2021/12/12 01:27:43;;;;;;;8.73;2.08;;;9.30;62.00;;;;;;4993033;28;20130;-73
2021/12/12 01:30:11;;;;;;;6.40;2.20;;;9.20;61.90;;;;;;4993179;28;20023;-73
2021/12/12 01:32:37;;;;;;;9.23;2.30;;;9.20;62.20;;;;;;4994568;28;20041;-73
2021/12/12 01:35:13;;;;;;;5.93;2.00;;;9.20;62.10;;;;;;4996326;28;20077;-74
2021/12/12 01:37:42;;;;;;;5.35;2.17;;;9.20;62.20;;;;;;4996262;28;20038;-72
2021/12/12 01:40:23;;;;;;;5.70;2.17;;;9.20;62.50;;;;;;4996220;28;20100;-74
2021/12/12 01:42:59;;;;;;;4.60;1.70;;;9.20;62.70;;;;;;4996075;28;20038;-72
2021/12/12 01:45:37;;;;;;;5.65;1.90;;;9.10;62.50;;;;;;4996127;28;20492;-72
2021/12/12 01:48:13;;;;;;;6.03;1.98;;;9.10;62.60;;;;;;4994453;28;20054;-73
2021/12/12 01:50:52;;;;;;;5.05;1.85;;;9.20;63.00;;;;;;4996123;28;20377;-72
2021/12/12 01:53:21;;;;;;;8.43;2.38;;;9.20;62.70;;;;;;4996194;28;20097;-73
2021/12/12 01:56:17;;;;;;;5.47;2.00;;;9.20;62.80;;;;;;4994763;28;20037;-73
2021/12/12 01:58:46;;;;;;;7.22;2.20;;;9.10;62.90;;;;;;4993119;28;20117;-71
2021/12/12 02:01:22;;;;;;;3.50;1.65;;;9.20;62.70;;;;;;4996040;28;20148;-75
2021/12/12 02:04:00;;;;;;;5.95;1.58;;;9.20;62.70;;;;;;4996298;28;20033;-75
2021/12/12 02:06:27;;;;;;;5.28;1.95;;;9.10;62.70;;;;;;4996233;28;20109;-72
2021/12/12 02:08:55;;;;;;;6.18;1.98;;;9.20;62.80;;;;;;4995801;28;20027;-70
2021/12/12 02:11:28;;;;;;;4.15;1.75;;;9.10;62.50;;;;;;4995988;28;20375;-73
2021/12/12 02:13:56;;;;;;;;;;;9.10;62.50;;;;;;4996923;28;20077;-73
2021/12/12 02:16:25;;;;;;;5.72;1.50;;;9.10;62.50;;;;;;4995658;28;19906;-73
2021/12/12 02:18:54;;;;;;;7.80;2.10;;;9.10;62.50;;;;;;4994455;28;20125;-72
2021/12/12 02:21:27;;;;;;;6.25;1.90;;;9.10;62.70;;;;;;4995400;28;20046;-74
2021/12/12 02:37:34;;;;;;;5.50;1.80;;;9.00;63.10;;;;;;4996310;28;20037;-72
2021/12/12 02:40:03;;;;;;;5.95;1.70;;;9.00;63.20;;;;;;4996446;28;20022;-74
2021/12/12 02:42:30;;;;;;;4.00;1.60;;;9.00;63.40;;;;;;4995880;28;20491;-73
2021/12/12 02:44:59;;;;;;;5.55;1.85;;;9.00;63.50;;;;;;4994101;28;20030;-71
2021/12/12 02:47:33;;;;;;;7.53;2.10;;;8.90;63.50;;;;;;4994795;28;20061;-76
2021/12/12 02:50:13;;;;;;;4.30;1.90;;;8.90;63.50;;;;;;5009517;28;20088;-71
2021/12/12 02:52:42;;;;;;;3.03;1.50;;;8.90;63.40;;;;;;4994730;28;20031;-73
2021/12/12 02:55:16;;;;;;;5.30;1.92;;;8.90;63.70;;;;;;4994543;28;20333;-72
2021/12/12 02:57:42;;;;;;;3.08;1.38;;;8.90;63.80;;;;;;4994746;28;20055;-75
2021/12/12 03:00:17;;;;;;;4.70;1.60;;;8.90;63.70;;;;;;4995132;28;20106;-77
2021/12/12 03:02:46;;;;;;;6.38;1.83;;;8.90;63.90;;;;;;4995206;28;20088;-72
2021/12/12 03:05:15;;;;;;;4.40;2.17;;;8.80;63.70;;;;;;4994502;28;20060;-74
2021/12/12 03:07:42;;;;;;;5.75;1.90;;;8.80;63.90;;;;;;4994251;28;20030;-74
2021/12/12 03:10:13;;;;;;;4.82;1.70;;;8.80;63.60;;;;;;4994578;28;20157;-72
2021/12/12 03:12:39;;;;;;;13.40;3.00;;;8.80;63.70;;;;;;4994501;28;20037;-71
2021/12/12 03:15:08;;;;;;;4.18;1.52;;;8.80;63.80;;;;;;4994224;28;20019;-73
2021/12/12 03:17:35;;;;;;;2.88;1.30;;;8.80;63.70;;;;;;4994105;28;20113;-74
2021/12/12 03:20:17;;;;;;;4.30;1.55;;;8.80;63.40;;;;;;4994318;28;20027;-71
2021/12/12 03:22:43;;;;;;;4.63;2.15;;;8.80;63.20;;;;;;4994450;28;20049;-73
2021/12/12 03:25:09;;;;;;;5.22;1.50;;;8.80;63.10;;;;;;4994182;28;20034;-76
2021/12/12 03:27:36;;;;;;;4.70;1.60;;;8.80;62.50;;;;;;4994740;28;20031;-74
2021/12/12 03:30:04;;;;;;;3.63;1.60;;;8.80;62.60;;;;;;4992659;28;20401;-76
2021/12/12 03:32:31;;;;;;;6.20;2.67;;;8.80;62.30;;;;;;4994168;28;20126;-72
2021/12/12 03:35:01;;;;;;;5.40;1.52;;;8.80;62.20;;;;;;4993985;28;20045;-73
2021/12/12 03:37:30;;;;;;;5.68;1.52;;;8.80;62.40;;;;;;4992604;28;20543;-73
2021/12/12 03:39:59;;;;;;;4.63;1.67;;;8.80;62.40;;;;;;4993945;28;20435;-73
2021/12/12 03:42:29;;;;;;;4.78;1.45;;;8.80;62.30;;;;;;4993749;28;20038;-76
2021/12/12 03:44:56;;;;;;;5.93;1.58;;;8.80;62.10;;;;;;4993741;28;20053;-76
2021/12/12 03:47:26;;;;;;;2.88;1.48;;;8.80;62.30;;;;;;4993628;28;20035;-74
2021/12/12 03:49:53;;;;;;;4.93;1.45;;;8.80;62.10;;;;;;4992418;28;20057;-75
2021/12/12 03:52:22;;;;;;;4.20;1.50;;;8.80;62.20;;;;;;4993809;28;20026;-74
2021/12/12 03:54:50;;;;;;;6.32;1.60;;;8.80;62.10;;;;;;4993906;28;20058;-74
2021/12/12 03:57:18;;;;;;;5.00;1.45;;;8.80;61.70;;;;;;4993658;28;20450;-73
2021/12/12 03:59:44;;;;;;;4.25;1.40;;;8.80;61.90;;;;;;4993402;28;20027;-70
2021/12/12 04:02:10;;;;;;;4.50;1.55;;;8.80;61.70;;;;;;4993369;28;20041;-71
2021/12/12 04:04:40;;;;;;;6.57;2.40;;;8.80;61.80;;;;;;4993523;28;20417;-72
2021/12/12 04:07:11;;;;;;;5.53;1.77;;;8.70;62.50;;;;;;4993538;28;20114;-75
2021/12/12 04:09:38;;;;;;;3.03;1.45;;;8.70;61.80;;;;;;4993516;28;20026;-75
2021/12/12 04:12:08;;;;;;;3.55;1.60;;;8.70;62.10;;;;;;4993564;28;20030;-72
2021/12/12 04:14:33;;;;;;;5.43;1.48;;;8.70;62.20;;;;;;4993528;28;20383;-73
2021/12/12 04:17:04;;;;;;;3.15;1.42;;;8.70;62.10;;;;;;4993480;28;20023;-72
2021/12/12 04:19:30;;;;;;;4.38;1.42;;;8.70;62.40;;;;;;4993451;28;20113;-72
2021/12/12 04:21:56;;;;;;;3.83;1.50;;;8.70;62.60;;;;;;4993548;28;20161;-74
2021/12/12 04:24:28;;;;;;;3.58;1.30;;;8.70;62.70;;;;;;4993297;28;20046;-72
2021/12/12 04:26:55;;;;;;;2.80;1.27;;;8.70;62.80;;;;;;4993115;28;20034;-73
2021/12/12 04:29:25;;;;;;;3.33;1.40;;;8.60;62.60;;;;;;4993966;28;20037;-75
2021/12/12 04:31:59;;;;;;;4.88;1.75;;;8.60;62.70;;;;;;4996800;28;20022;-72
2021/12/12 04:34:29;;;;;;;11.98;4.18;;;8.60;62.90;;;;;;4994126;28;20023;-74
2021/12/12 04:36:56;;;;;;;4.20;1.73;;;8.60;63.10;;;;;;4991946;28;20526;-75
2021/12/12 04:39:26;;;;;;;2.97;1.20;;;8.60;63.30;;;;;;4992851;28;20476;-72
2021/12/12 04:41:59;;;;;;;4.05;1.60;;;8.60;63.40;;;;;;4992981;28;20084;-73
2021/12/12 04:44:30;;;;;;;3.33;1.40;;;8.50;63.50;;;;;;4991845;28;20488;-74
2021/12/12 04:50:17;;;;;;;7.10;1.48;;;8.50;63.30;;;;;;4992455;28;20156;-74
2021/12/12 04:52:58;;;;;;;4.25;1.70;;;8.50;63.30;;;;;;4993001;28;20019;-72
2021/12/12 04:55:44;;;;;;;3.45;1.40;;;8.40;63.50;;;;;;4993046;28;20030;-73
2021/12/12 04:58:23;;;;;;;4.07;1.52;;;8.40;63.50;;;;;;4993015;28;20022;-72
2021/12/12 05:00:53;;;;;;;4.32;1.55;;;8.40;64.10;;;;;;4993581;28;20030;-75
2021/12/12 05:03:44;;;;;;;12.10;1.58;;;8.30;64.20;;;;;;4993232;28;20022;-76
2021/12/12 05:06:28;;;;;;;2.45;1.33;;;8.30;63.80;;;;;;4993368;28;20026;-77
2021/12/12 05:09:17;;;;;;;4.57;1.73;;;8.30;63.80;;;;;;4996486;28;20102;-76
2021/12/12 05:12:06;;;;;;;4.93;1.67;;;8.30;63.90;;;;;;4997275;28;20026;-75
2021/12/12 05:14:39;;;;;;;6.70;1.85;;;8.30;63.70;;;;;;5011989;28;20057;-72
2021/12/12 05:17:13;;;;;;;5.53;1.40;;;8.30;63.80;;;;;;4996447;28;20026;-76
2021/12/12 05:19:46;;;;;;;4.32;1.60;;;8.30;63.80;;;;;;4996500;28;20487;-76
2021/12/12 05:22:17;;;;;;;5.57;1.42;;;8.30;63.60;;;;;;4996407;28;20069;-74
2021/12/12 05:24:47;;;;;;;4.45;1.60;;;8.30;63.70;;;;;;4996455;28;20479;-74
2021/12/12 05:27:17;;;;;;;2.55;1.10;;;8.30;63.60;;;;;;4996236;28;20058;-72
2021/12/12 05:29:55;;;;;;;4.03;1.40;;;8.30;63.40;;;;;;4996422;28;20409;-76
2021/12/12 05:32:22;;;;;;;3.60;1.40;;;8.30;63.40;;;;;;4996298;28;20030;-73
2021/12/12 05:34:50;;;;;;;3.42;1.35;;;8.30;63.40;;;;;;4996247;28;20030;-76
2021/12/12 05:37:21;;;;;;;5.05;1.50;;;8.20;62.90;;;;;;4996265;28;20415;-76
2021/12/12 05:39:47;;;;;;;4.18;1.50;;;8.30;63.40;;;;;;4996027;28;20065;-76
2021/12/12 05:42:14;;;;;;;3.55;1.45;;;8.30;63.20;;;;;;4995920;28;20101;-76
2021/12/12 05:44:41;;;;;;;7.25;1.60;;;8.20;63.20;;;;;;4996093;28;20029;-74
2021/12/12 05:47:09;;;;;;;3.47;1.50;;;8.30;63.30;;;;;;4996110;28;20541;-73
2021/12/12 05:49:36;;;;;;;3.55;1.50;;;8.20;63.20;;;;;;4995711;28;20073;-76
2021/12/12 05:52:10;;;;;;;5.05;1.83;;;8.20;63.30;;;;;;4996032;28;20105;-74
2021/12/12 05:54:36;;;;;;;2.97;1.38;;;8.20;63.30;;;;;;4996131;28;20352;-75
2021/12/12 05:57:03;;;;;;;3.25;1.40;;;8.20;63.20;;;;;;4995869;28;20085;-75
2021/12/12 05:59:30;;;;;;;5.15;1.40;;;8.20;63.30;;;;;;4995782;28;20080;-72
2021/12/12 06:01:57;;;;;;;3.75;1.30;;;8.20;63.30;;;;;;4995611;28;20121;-75
2021/12/12 06:04:23;;;;;;;3.83;1.73;;;8.20;63.40;;;;;;4996011;28;20062;-75
2021/12/12 06:06:50;;;;;;;3.20;1.60;;;8.20;63.30;;;;;;4995738;28;20060;-70
2021/12/12 06:09:17;;;;;;;4.20;1.70;;;8.10;62.90;;;;;;4995805;28;20412;-72
2021/12/12 06:11:47;;;;;;;6.45;1.92;;;8.10;63.10;;;;;;4995780;28;20036;-73
2021/12/12 06:14:14;;;;;;;4.18;1.80;;;8.10;63.10;;;;;;4995809;28;20464;-76
2021/12/12 06:16:41;;;;;;;5.18;1.77;;;8.10;63.20;;;;;;4996130;28;20029;-76
2021/12/12 06:19:19;;;;;;;4.63;1.60;;;8.10;63.10;;;;;;4996604;28;20105;-76
2021/12/12 06:21:49;;;;;;;3.55;1.60;;;8.10;63.30;;;;;;4996840;28;20026;-75
2021/12/12 06:24:15;;;;;;;4.32;1.77;;;8.10;63.40;;;;;;4995902;28;20042;-78
2021/12/12 06:26:42;;;;;;;7.40;1.70;;;8.10;62.90;;;;;;4995745;28;20030;-76
2021/12/12 06:29:08;;;;;;;4.28;1.80;;;8.10;63.20;;;;;;4993908;28;20035;-75
2021/12/12 06:31:41;;;;;;;3.83;1.60;;;8.10;63.20;;;;;;4995144;28;20439;-75
2021/12/12 06:34:08;;;;;;;5.72;1.90;;;8.10;63.00;;;;;;4995473;28;20117;-76
2021/12/12 06:36:34;;;;;;;5.93;1.88;;;8.00;62.90;;;;;;4995195;28;20026;-76
2021/12/12 06:39:00;;;;;;;3.75;1.48;;;8.00;63.10;;;;;;4995200;28;20026;-76
2021/12/12 06:41:27;;;;;;;5.20;1.75;;;8.00;63.10;;;;;;4995036;28;20156;-76
2021/12/12 06:43:53;;;;;;;3.60;1.60;;;8.00;63.00;;;;;;4993912;28;20424;-74
2021/12/12 06:46:20;;;;;;;2.90;1.38;;;8.00;63.10;;;;;;4995072;28;20026;-77
2021/12/12 06:48:46;;;;;;;3.17;1.40;;;8.00;64.00;;;;;;4994893;28;20088;-73
2021/12/12 06:51:13;;;;;;;3.30;1.65;;;8.00;63.20;;;;;;4995289;28;20092;-72
2021/12/12 06:53:43;;;;;;;4.65;1.80;;;8.00;63.20;;;;;;4994898;28;20022;-71
2021/12/12 06:56:11;;;;;;;8.48;3.58;;;8.10;63.00;;;;;;4995421;28;20030;-73
2021/12/12 06:58:37;;;;;;;4.20;1.50;;;8.10;63.00;;;;;;4993288;28;20105;-75
2021/12/12 07:01:16;;;;;;;7.10;1.65;;;8.10;62.90;;;;;;4994623;28;20045;-71
2021/12/12 07:03:43;;;;;;;3.70;1.65;;;8.20;63.10;;;;;;4994581;28;20026;-71
2021/12/12 07:06:09;;;;;;;4.13;1.73;;;8.20;62.90;;;;;;4994782;28;20054;-72
2021/12/12 07:08:35;;;;;;;5.97;1.83;;;8.20;62.60;;;;;;4995859;28;20108;-72
2021/12/12 07:11:01;;;;;;;4.10;1.70;;;8.30;62.70;;;;;;4996999;28;20034;-71
2021/12/12 07:13:27;;;;;;;3.85;1.55;;;8.40;62.50;;;;;;4997284;28;20469;-75
2021/12/12 07:15:57;;;;;;;3.20;1.48;;;8.40;62.10;;;;;;4996706;28;20026;-70
2021/12/12 07:18:27;;;;;;;3.10;1.50;;;8.40;62.30;;;;;;4996509;28;20030;-77
2021/12/12 07:20:56;;;;;;;6.38;1.90;;;8.40;62.60;;;;;;4994737;28;20030;-77
2021/12/12 07:23:22;;;;;;;3.03;1.63;;;8.50;62.40;;;;;;4994765;28;20030;-76
2021/12/12 07:25:48;;;;;;;5.57;1.95;;;8.50;62.30;;;;;;4993347;28;20033;-76
2021/12/12 07:28:16;;;;;;;4.88;1.85;;;8.50;62.20;;;;;;4994337;28;20034;-78
2021/12/12 07:30:43;;;;;;;5.10;1.90;;;8.50;62.10;;;;;;4998573;28;20109;-76
2021/12/12 07:33:10;;;;;;;4.72;2.00;;;8.60;62.30;;;;;;5013937;28;20055;-78
2021/12/12 07:35:39;;;;;;;7.13;1.85;;;8.60;62.60;;;;;;5014405;28;20037;-76
2021/12/12 07:38:11;;;;;;;4.07;2.10;;;8.70;62.60;;;;;;5013963;28;20029;-78
2021/12/12 07:40:37;;;;;;;4.30;1.98;;;8.70;62.50;;;;;;4994606;28;20053;-76
2021/12/12 07:43:04;;;;;;;3.80;1.90;;;8.70;62.50;;;;;;5013413;28;20041;-74
2021/12/12 07:45:30;;;;;;;3.65;1.83;;;8.70;62.40;;;;;;5013564;28;20026;-73
2021/12/12 07:47:56;;;;;;;4.70;2.45;;;8.80;62.60;;;;;;5013452;28;20029;-70
2021/12/12 07:50:26;;;;;;;4.03;1.55;;;8.70;62.30;;;;;;5012614;28;20050;-74
2021/12/12 07:52:52;;;;;;;5.72;2.17;;;8.80;62.70;;;;;;4993685;28;20383;-73
2021/12/12 07:55:18;;;;;;;5.38;1.95;;;8.80;62.60;;;;;;4993936;28;20050;-76
2021/12/12 07:57:44;;;;;;;5.55;1.98;;;8.80;62.70;;;;;;4994774;28;20058;-74
2021/12/12 08:00:19;;;;;;;5.43;1.85;;;8.70;62.80;;;;;;4993840;28;20027;-74
2021/12/12 08:02:47;;;;;;;7.10;2.25;;;8.70;62.30;;;;;;4993459;28;20103;-73
2021/12/12 08:05:15;;;;;;;8.85;2.30;;;8.80;62.90;;;;;;4993351;28;20027;-72
2021/12/12 08:07:42;;;;;;;5.80;2.00;;;8.80;63.00;;;;;;5003104;28;20033;-71
2021/12/12 08:10:11;;;;;;;7.60;2.30;;;8.80;62.90;;;;;;4995306;28;20145;-78
2021/12/12 08:12:38;;;;;;;11.40;2.88;;;8.80;62.80;;;;;;5013011;28;20026;-76
2021/12/12 08:15:10;;;;;;;5.97;2.00;;;8.90;63.10;;;;;;5009864;28;20042;-71
2021/12/12 08:17:38;;;;;;;5.50;2.00;;;8.90;63.00;;;;;;5001983;28;20102;-71
2021/12/12 08:20:06;;;;;;;5.07;2.05;;;8.90;62.90;;;;;;5003738;28;20010;-75
2021/12/12 08:22:33;;;;;;;4.75;2.15;;;9.00;63.10;;;;;;5005150;28;20506;-72
2021/12/12 08:25:03;;;;;;;7.35;2.30;;;9.00;62.80;;;;;;5012854;28;20010;-70
2021/12/12 08:27:29;;;;;;;6.50;1.98;;;9.10;62.70;;;;;;5007495;28;20483;-69
2021/12/12 08:29:57;;;;;;;4.07;2.08;;;9.10;63.00;;;;;;5000073;28;20105;-72
2021/12/12 08:32:23;;;;;;;5.10;2.30;;;9.20;62.90;;;;;;5004416;28;20121;-74
2021/12/12 08:34:51;;;;;;;7.70;2.35;;;9.20;63.20;;;;;;4998654;28;20073;-74
2021/12/12 08:37:17;;;;;;;7.90;2.35;;;9.30;63.30;;;;;;4993204;28;20065;-71
2021/12/12 08:39:43;;;;;;;4.70;2.00;;;9.30;63.10;;;;;;4993236;28;20022;-68
2021/12/12 08:42:09;;;;;;;7.95;2.30;;;9.40;63.10;;;;;;4998531;28;20037;-76
2021/12/12 08:44:37;;;;;;;6.55;2.30;;;9.40;63.10;;;;;;5017772;28;20119;-75
2021/12/12 08:47:06;;;;;;;5.18;2.42;;;9.50;62.80;;;;;;4999750;28;20111;-75
2021/12/12 08:49:36;;;;;;;5.55;2.20;;;9.50;63.00;;;;;;5016001;28;20107;-75
2021/12/12 08:52:10;;;;;;;6.65;2.38;;;9.60;63.10;;;;;;5016454;28;20033;-70
2021/12/12 08:54:37;;;;;;;;;;;9.70;62.90;;;;;;5016982;28;20088;-71
2021/12/12 08:57:20;;;;;;;7.88;2.80;;;9.70;62.60;;;;;;5016461;28;19905;-72
2021/12/12 08:59:48;;;;;;;9.15;2.70;;;9.70;62.40;;;;;;4998756;28;20084;-70
2021/12/12 09:02:17;;;;;;;4.80;2.50;;;9.80;62.20;;;;;;5016233;28;20038;-74
2021/12/12 09:05:00;;;;;;;5.28;2.50;;;9.90;62.50;;;;;;5016310;28;20114;-71
2021/12/12 09:07:35;;;;;;;6.82;3.00;;;9.90;62.20;;;;;;5017236;28;20029;-73
2021/12/12 09:10:22;;;;;;;6.97;2.60;;;10.00;61.10;;;;;;5017185;28;20034;-72
2021/12/12 09:12:54;;;;;;;5.78;2.85;;;10.10;61.00;;;;;;5016123;28;20387;-72
2021/12/12 09:15:36;;;;;;;8.43;2.80;;;10.20;60.60;;;;;;5016269;28;20041;-72
2021/12/12 09:18:17;;;;;;;7.47;2.83;;;10.30;60.60;;;;;;5016119;28;20429;-71
2021/12/12 09:20:53;;;;;;;5.05;2.30;;;10.30;60.10;;;;;;5015999;28;20125;-71
2021/12/12 09:23:32;;;;;;;6.93;2.70;;;10.40;60.00;;;;;;5015430;28;20030;-74
2021/12/12 09:26:00;;;;;;;5.03;2.15;;;10.40;59.00;;;;;;4998627;28;20427;-74
2021/12/12 09:29:10;;;;;;;5.22;2.45;;;10.40;58.30;;;;;;5016188;28;20022;-72
2021/12/12 09:31:41;;;;;;;6.35;2.50;;;10.50;58.70;;;;;;4935595;29;20043;-72
2021/12/12 09:34:25;;;;;;;6.57;2.40;;;10.60;57.60;;;;;;4935329;29;20028;-72
2021/12/12 09:36:56;;;;;;;;;;;10.60;58.00;;;;;;4985913;28;20041;-70
2021/12/12 09:39:44;;;;;;;4.15;2.10;;;10.70;56.50;;;;;;5015443;28;19925;-72
2021/12/12 09:42:49;;;;;;;4.30;2.00;;;10.70;56.10;;;;;;5015963;28;20054;-77
2021/12/12 09:45:35;;;;;;;;;;;10.70;56.40;;;;;;5016296;28;20034;-76
2021/12/12 09:51:45;;;;;;;6.22;2.38;;;10.80;56.20;;;;;;5016128;28;20477;-74
2021/12/12 09:54:36;;;;;;;5.88;2.28;;;10.90;55.30;;;;;;5015352;28;20097;-74
2021/12/12 09:57:16;;;;;;;6.60;2.30;;;10.90;55.10;;;;;;5015935;28;20037;-70
2021/12/12 10:00:06;;;;;;;3.70;2.00;;;10.90;55.10;;;;;;5015852;28;20026;-73
2021/12/12 10:02:46;;;;;;;6.20;2.17;;;11.00;54.90;;;;;;5015727;28;20033;-73
2021/12/12 10:05:15;;;;;;;6.10;2.15;;;11.10;54.60;;;;;;5015630;28;20026;-75
2021/12/12 10:08:02;;;;;;;6.88;3.30;;;11.20;54.70;;;;;;5015841;28;20030;-76
2021/12/12 10:10:35;;;;;;;4.00;1.90;;;11.20;53.60;;;;;;5015777;28;20018;-76
2021/12/12 10:13:22;;;;;;;6.07;2.10;;;11.30;53.10;;;;;;5015721;28;20022;-75
2021/12/12 10:15:54;;;;;;;6.20;2.08;;;11.40;52.30;;;;;;5016267;28;20022;-72
2021/12/12 10:18:29;;;;;;;3.85;2.00;;;11.40;53.00;;;;;;5016108;28;20084;-71
2021/12/12 10:21:09;;;;;;;4.68;2.20;;;11.50;52.40;;;;;;5015718;28;20034;-76
2021/12/12 10:23:44;;;;;;;5.20;1.83;;;11.50;51.70;;;;;;5015962;28;20030;-74
2021/12/12 10:26:25;;;;;;;4.07;2.10;;;11.60;51.80;;;;;;5015588;28;20030;-72
2021/12/12 10:29:08;;;;;;;4.80;2.25;;;11.60;51.60;;;;;;5015528;28;20022;-72
2021/12/12 10:31:44;;;;;;;5.63;2.10;;;11.70;51.70;;;;;;5015385;28;20104;-70
2021/12/12 10:34:25;;;;;;;4.32;2.00;;;11.70;51.40;;;;;;5015302;28;20075;-75
2021/12/12 10:37:14;;;;;;;4.63;1.98;;;11.80;51.50;;;;;;5015350;28;20060;-74
2021/12/12 10:39:42;;;;;;;4.63;2.03;;;11.80;51.10;;;;;;5014613;28;20208;-68
2021/12/12 10:42:16;;;;;;;5.70;1.95;;;11.80;51.10;;;;;;5014976;28;20034;-72
2021/12/12 10:45:13;;;;;;;;;;;11.90;50.90;;;;;;5015035;28;20022;-71
2021/12/12 10:47:55;;;;;;;4.57;2.17;;;11.90;49.50;;;;;;5002960;28;19906;-69
2021/12/12 10:50:33;;;;;;;4.80;1.92;;;12.00;50.20;;;;;;5014617;28;20153;-70
2021/12/12 10:53:11;;;;;;;6.35;2.30;;;12.00;49.60;;;;;;4997197;28;20505;-69
2021/12/12 10:55:55;;;;;;;6.20;2.28;;;12.00;50.60;;;;;;5014053;28;20037;-69
2021/12/12 10:58:24;;;;;;;5.55;2.35;;;12.00;50.50;;;;;;5015393;28;20033;-74
2021/12/12 11:00:57;;;;;;;7.35;3.05;;;12.10;50.50;;;;;;5014597;28;20029;-70
2021/12/12 11:03:38;;;;;;;7.47;2.42;;;12.20;49.90;;;;;;5014812;28;20174;-70
2021/12/12 11:06:16;;;;;;;4.78;2.47;;;12.20;49.90;;;;;;4996630;28;20091;-70
2021/12/12 11:09:03;;;;;;;6.30;2.08;;;12.30;49.60;;;;;;5014173;28;20030;-71
2021/12/12 11:11:38;;;;;;;5.40;2.30;;;12.30;49.60;;;;;;5014393;28;20034;-70
2021/12/12 11:14:07;;;;;;;5.72;2.17;;;12.40;49.50;;;;;;5014322;28;20030;-69
2021/12/12 11:16:46;;;;;;;4.43;2.00;;;12.40;48.50;;;;;;5014409;28;20105;-69
2021/12/12 11:19:22;;;;;;;8.13;3.08;;;12.40;48.70;;;;;;5014378;28;20029;-71
2021/12/12 11:22:00;;;;;;;4.88;2.28;;;12.40;47.90;;;;;;5014354;28;20122;-71
2021/12/12 11:24:37;;;;;;;4.20;2.05;;;12.50;47.60;;;;;;5014268;28;20021;-71
2021/12/12 11:27:28;;;;;;;8.43;1.98;;;12.50;46.90;;;;;;5014130;28;20026;-73
2021/12/12 11:30:21;;;;;;;6.45;2.22;;;12.50;46.30;;;;;;5013464;28;20030;-72
2021/12/12 11:32:50;;;;;;;5.93;2.38;;;12.50;46.10;;;;;;5013899;28;20072;-71
2021/12/12 11:35:19;;;;;;;6.65;2.40;;;12.60;46.00;;;;;;4996785;28;20105;-76
2021/12/12 11:37:58;;;;;;;3.72;2.00;;;12.60;45.80;;;;;;5013812;28;20502;-75
2021/12/12 11:40:33;;;;;;;5.13;2.60;;;12.60;46.10;;;;;;5014507;28;20057;-75
2021/12/12 11:42:58;;;;;;;6.32;2.72;;;12.70;46.20;;;;;;4996910;28;20458;-71
2021/12/12 11:45:38;;;;;;;8.15;2.45;;;12.70;45.90;;;;;;5016657;28;20078;-74
2021/12/12 11:48:53;;;;;;;4.78;2.10;;;12.80;45.90;;;;;;5016856;22;20034;-67
2021/12/12 11:51:30;;;;;;;5.47;1.92;;;12.80;46.10;;;;;;4999069;28;20137;-63
2021/12/12 11:54:20;;;;;;;4.65;2.10;;;12.70;46.30;;;;;;5013329;28;20026;-64
2021/12/12 11:56:50;;;;;;;8.02;2.67;;;12.70;46.40;;;;;;5013426;28;20034;-64
2021/12/12 11:59:23;;;;;;;4.00;2.25;;;12.80;45.00;;;;;;5013404;28;20049;-65
2021/12/12 12:01:53;;;;;;;5.03;2.78;;;12.80;45.20;;;;;;5013687;28;20391;-63
2021/12/12 12:04:35;;;;;;;4.45;2.20;;;12.80;46.80;;;;;;5013408;28;20046;-65
2021/12/12 12:07:18;;;;;;;4.85;2.50;;;12.90;45.50;;;;;;5013726;28;20025;-63
2021/12/12 12:10:09;;;;;;;5.07;2.38;;;13.00;45.50;;;;;;5013581;28;20436;-63
2021/12/12 12:12:59;;;;;;;4.10;2.10;;;13.00;46.70;;;;;;5013361;28;20502;-64
2021/12/12 12:15:52;;;;;;;5.13;2.30;;;13.10;46.30;;;;;;5013579;28;20048;-65
2021/12/12 12:18:41;;;;;;;6.47;2.95;;;13.10;44.50;;;;;;5014015;28;20034;-75
2021/12/12 12:21:37;;;;;;;4.88;2.45;;;13.20;45.20;;;;;;5013510;28;20395;-72
2021/12/12 12:24:38;;;;;;;4.95;2.17;;;13.20;45.60;;;;;;5013456;28;20029;-71
2021/12/12 12:27:10;;;;;;;4.82;2.58;;;13.20;43.70;;;;;;5013169;28;20029;-69
2021/12/12 12:30:00;;;;;;;6.78;2.35;;;13.20;44.30;;;;;;5013367;28;20437;-65
2021/12/12 12:33:03;;;;;;;4.75;2.50;;;13.30;45.50;;;;;;5013784;28;20117;-66
2021/12/12 12:36:06;;;;;;;4.45;2.15;;;13.40;45.30;;;;;;5013454;28;20022;-64
2021/12/12 12:38:56;;;;;;;3.70;1.83;;;13.40;44.70;;;;;;5013060;28;20021;-63
2021/12/12 12:41:57;;;;;;;3.67;1.80;;;13.40;45.00;;;;;;5013262;28;20116;-68
2021/12/12 12:45:02;;;;;;;7.85;2.15;;;13.40;44.90;;;;;;5013749;28;20109;-66
2021/12/12 12:48:09;;;;;;;5.35;1.80;;;13.40;44.70;;;;;;5013324;28;20024;-71
2021/12/12 12:51:02;;;;;;;4.38;1.88;;;13.50;44.60;;;;;;4999494;28;20526;-63
2021/12/12 12:54:06;;;;;;;5.23;2.13;;;13.60;45.00;;;;;;5013553;28;20025;-70
2021/12/12 12:56:50;;;;;;;3.88;1.73;;;13.70;44.90;;;;;;5015853;28;20030;-63
2021/12/12 12:59:38;;;;;;;4.53;1.90;;;13.70;43.60;;;;;;5014137;28;20148;-65
2021/12/12 13:02:12;;;;;;;4.28;1.90;;;13.70;42.30;;;;;;5012676;28;20557;-67
2021/12/12 13:04:56;;;;;;;4.82;1.98;;;13.70;42.00;;;;;;5013009;28;20022;-64
2021/12/12 13:07:40;;;;;;;;;;;13.60;41.20;;;;;;5013907;28;20117;-64
2021/12/12 13:10:25;;;;;;;4.87;2.20;;;13.60;39.80;;;;;;5013527;28;19916;-68
2021/12/12 13:13:07;;;;;;;6.43;1.90;;;13.70;41.60;;;;;;5012048;28;20788;-67
2021/12/12 13:15:57;;;;;;;4.75;2.00;;;13.70;42.00;;;;;;4995635;28;20387;-65
2021/12/12 13:18:46;;;;;;;3.67;1.90;;;13.70;41.80;;;;;;5013203;28;20116;-63
2021/12/12 13:21:51;;;;;;;5.00;2.10;;;13.60;42.60;;;;;;4995154;28;20488;-64
2021/12/12 13:24:27;;;;;;;3.45;1.48;;;13.60;42.30;;;;;;5012942;28;20519;-64
2021/12/12 13:27:18;;;;;;;4.40;1.88;;;13.60;42.00;;;;;;4996188;28;20065;-69
2021/12/12 13:30:06;;;;;;;5.10;2.38;;;13.60;41.40;;;;;;5016195;28;20610;-76
2021/12/12 13:33:18;;;;;;;3.90;2.00;;;13.70;41.90;;;;;;5016881;28;20053;-68
2021/12/12 13:35:59;;;;;;;4.65;1.90;;;13.70;41.80;;;;;;4976081;28;20027;-68
2021/12/12 13:38:41;;;;;;;6.55;2.55;;;13.70;42.30;;;;;;5015552;28;20041;-66
2021/12/12 13:41:19;;;;;;;7.43;2.20;;;13.70;42.80;;;;;;5016283;28;20034;-68
2021/12/12 13:44:04;;;;;;;4.10;1.85;;;13.70;42.70;;;;;;5014897;28;20391;-66
2021/12/12 13:47:01;;;;;;;8.32;4.05;;;13.60;43.00;;;;;;4992392;28;20500;-72
2021/12/12 13:49:33;;;;;;;4.43;1.90;;;13.60;42.80;;;;;;5015812;28;20062;-68
2021/12/12 13:52:09;;;;;;;4.50;2.10;;;13.60;43.40;;;;;;4998652;28;20084;-69
2021/12/12 13:55:07;;;;;;;7.70;2.83;;;13.80;43.10;;;;;;5015681;28;20038;-64